Terminal Aerodrome Forecast
Issued by NWS Mobile, AL

Current Version | Previous Version | Text Only | Print | Product List | Glossary On
Versions: 1 2 3 4 5 6 7 8 9 10 11 12 13 14 15 16 17 18 19 20 21 22 23 24 25 26 27 28 29 30 31 32 33 34 35 36 37 38
000
FTUS44 KMOB 221120
TAFMOB
TAF
KMOB 221120Z 2212/2312 16018G26KT 6SM RA VCTS OVC015CB
     FM230000 16018KT 4SM -RA BR VCSH OVC015
     FM230600 16012KT P6SM VCSH OVC015=

USA.gov is the U.S. government's official web portal to all federal, state and local government web resources and services.